createdAt,value
2023-04-17T00:01:16.093Z,98960.41
2023-04-17T00:03:45.052Z,98960.56
2023-04-17T00:06:14.290Z,98956.75
2023-04-17T00:08:43.727Z,98955.91
2023-04-17T00:11:12.100Z,98960.19
2023-04-17T00:13:40.022Z,98968.47
2023-04-17T00:16:10.941Z,98963.41
2023-04-17T00:18:42.128Z,98956.63
2023-04-17T00:21:10.069Z,98957.34
2023-04-17T00:23:37.981Z,98956.25
2023-04-17T00:26:06.213Z,98960.41
2023-04-17T00:28:34.137Z,98964.06
2023-04-17T00:31:02.016Z,98949.81
2023-04-17T00:33:31.896Z,98952.34
2023-04-17T00:35:59.797Z,98948.41
2023-04-17T00:38:27.789Z,98947.53
2023-04-17T00:40:56.049Z,98947.09
2023-04-17T00:43:23.978Z,98943.00
2023-04-17T00:45:52.986Z,98953.75
2023-04-17T00:48:24.232Z,98947.56
2023-04-17T00:50:53.184Z,98957.44
2023-04-17T00:53:21.580Z,98954.28
2023-04-17T00:55:51.506Z,98958.09
2023-04-17T00:58:19.543Z,98943.94
2023-04-17T01:00:49.204Z,98946.78
2023-04-17T01:03:17.525Z,98945.00
2023-04-17T01:05:50.311Z,98939.19
2023-04-17T01:08:19.577Z,98939.78
2023-04-17T01:10:47.978Z,98943.03
2023-04-17T01:13:15.914Z,98936.53
2023-04-17T01:15:44.989Z,98931.19
2023-04-17T01:18:13.259Z,98942.19
2023-04-17T01:20:41.248Z,98945.84
2023-04-17T01:23:09.732Z,98938.84
2023-04-17T01:25:37.679Z,98940.00
2023-04-17T01:28:05.876Z,98934.28
2023-04-17T01:30:35.537Z,98939.19
2023-04-17T01:33:03.810Z,98941.37
2023-04-17T01:35:31.755Z,98926.72
2023-04-17T01:38:00.082Z,98934.09
2023-04-17T01:40:28.482Z,98936.63
2023-04-17T01:42:56.400Z,98935.69
2023-04-17T01:45:24.939Z,98937.53
2023-04-17T01:47:52.997Z,98936.19
2023-04-17T01:50:21.046Z,98927.03
2023-04-17T01:52:49.394Z,98929.81
2023-04-17T01:55:17.780Z,98928.59
2023-04-17T01:57:45.727Z,98931.66
2023-04-17T02:00:14.984Z,98930.94
2023-04-17T02:02:44.270Z,98940.06
2023-04-17T02:05:12.327Z,98940.19
2023-04-17T02:07:40.269Z,98935.31
2023-04-17T02:10:08.958Z,98940.19
2023-04-17T02:12:37.672Z,98935.81
2023-04-17T02:15:06.272Z,98935.47
2023-04-17T02:17:34.575Z,98932.78
2023-04-17T02:20:07.012Z,98936.44
2023-04-17T02:22:35.158Z,98933.09
2023-04-17T02:25:03.507Z,98932.53
2023-04-17T02:27:31.476Z,98932.84
2023-04-17T02:29:59.387Z,98929.59
2023-04-17T02:32:28.715Z,98929.69
2023-04-17T02:34:57.045Z,98928.00
2023-04-17T02:37:25.177Z,98919.72
2023-04-17T02:39:54.425Z,98921.44
2023-04-17T02:42:22.297Z,98916.38
2023-04-17T02:44:50.229Z,98912.41
2023-04-17T02:47:18.583Z,98911.16
2023-04-17T02:49:46.890Z,98917.47
2023-04-17T02:52:14.840Z,98917.53
2023-04-17T02:54:43.111Z,98908.59
2023-04-17T02:57:11.591Z,98908.78
2023-04-17T02:59:39.645Z,98913.13
2023-04-17T03:02:08.715Z,98916.84
2023-04-17T03:04:38.992Z,98913.88
2023-04-17T03:07:07.256Z,98916.28
2023-04-17T03:09:35.303Z,98918.78
2023-04-17T03:12:04.759Z,98922.66
2023-04-17T03:14:33.037Z,98932.84
2023-04-17T03:17:01.297Z,98935.31
2023-04-17T03:19:29.370Z,98939.72
2023-04-17T03:21:57.647Z,98943.19
2023-04-17T03:24:25.558Z,98938.31
2023-04-17T03:26:54.193Z,98932.72
2023-04-17T03:29:22.980Z,98927.78
2023-04-17T03:31:51.138Z,98929.94
2023-04-17T03:34:21.923Z,98941.97
2023-04-17T03:36:50.702Z,98933.87
2023-04-17T03:39:18.690Z,98941.59
2023-04-17T03:41:46.736Z,98935.09
2023-04-17T03:44:15.137Z,98937.50
2023-04-17T03:46:43.312Z,98934.06
2023-04-17T03:49:11.840Z,98939.09
2023-04-17T03:51:42.781Z,98942.03
2023-04-17T03:54:11.260Z,98938.62
2023-04-17T03:56:39.886Z,98944.03
2023-04-17T03:59:08.857Z,98939.84
2023-04-17T04:01:38.912Z,98942.94
2023-04-17T04:04:08.049Z,98947.41
2023-04-17T04:06:37.924Z,98944.16
2023-04-17T04:09:06.812Z,98947.47
2023-04-17T04:11:35.071Z,98952.84
2023-04-17T04:14:03.592Z,98949.06
2023-04-17T04:16:31.657Z,98953.59
2023-04-17T04:19:02.102Z,98949.53
2023-04-17T04:21:30.701Z,98955.91
2023-04-17T04:23:58.778Z,98959.78
2023-04-17T04:26:27.476Z,98953.16
2023-04-17T04:28:56.942Z,98957.03
2023-04-17T04:31:29.866Z,98959.22
2023-04-17T04:33:59.488Z,98965.94
2023-04-17T04:36:30.413Z,98957.75
2023-04-17T04:39:00.002Z,98972.06
2023-04-17T04:41:30.219Z,98973.44
2023-04-17T04:43:58.680Z,98972.97
2023-04-17T04:46:28.612Z,98987.47
2023-04-17T04:48:57.304Z,98985.94
2023-04-17T04:51:27.081Z,98982.00
2023-04-17T04:53:55.164Z,98987.28
2023-04-17T04:56:23.351Z,98991.59
2023-04-17T04:58:51.706Z,98992.03
2023-04-17T05:01:19.992Z,98988.72
2023-04-17T05:03:50.215Z,98987.22
2023-04-17T05:06:20.004Z,99000.81
2023-04-17T05:08:48.982Z,98995.09
2023-04-17T05:11:16.964Z,98999.00
2023-04-17T05:13:45.560Z,98989.72
2023-04-17T05:16:13.865Z,98997.66
2023-04-17T05:18:41.781Z,99000.66
2023-04-17T05:21:10.480Z,99002.06
2023-04-17T05:23:38.912Z,98997.19
2023-04-17T05:26:07.588Z,99002.69
2023-04-17T05:28:35.926Z,99001.22
2023-04-17T05:31:04.012Z,99002.94
2023-04-17T05:33:32.310Z,99006.75
2023-04-17T05:36:01.157Z,98997.97
2023-04-17T05:38:29.913Z,98998.78
2023-04-17T05:40:57.885Z,99004.72
2023-04-17T05:43:26.302Z,99002.50
2023-04-17T05:45:54.858Z,99003.22
2023-04-17T05:48:23.280Z,99003.41
2023-04-17T05:50:52.497Z,99000.72
2023-04-17T05:53:20.943Z,99013.66
2023-04-17T05:55:49.247Z,99015.47
2023-04-17T05:58:23.841Z,99016.22
2023-04-17T06:00:53.887Z,99009.97
2023-04-17T06:03:22.722Z,99013.50
2023-04-17T06:05:51.637Z,99008.75
2023-04-17T06:08:19.634Z,99014.56
2023-04-17T06:10:50.422Z,99014.94
2023-04-17T06:13:19.013Z,99019.16
2023-04-17T06:15:47.586Z,99018.47
2023-04-17T06:18:17.800Z,99023.69
2023-04-17T06:20:46.316Z,99022.34
2023-04-17T06:23:14.642Z,99022.88
2023-04-17T06:25:43.036Z,99019.91
2023-04-17T06:28:10.978Z,99021.59
2023-04-17T06:30:39.319Z,99022.44
2023-04-17T06:33:08.030Z,99025.47
2023-04-17T06:35:37.950Z,99025.47
2023-04-17T06:38:09.178Z,99031.03
2023-04-17T06:40:37.265Z,99027.16
2023-04-17T06:43:06.478Z,99034.97
2023-04-17T06:45:38.564Z,99039.69
2023-04-17T06:48:07.512Z,99041.59
2023-04-17T06:50:35.981Z,99043.56
2023-04-17T06:53:03.977Z,99049.38
2023-04-17T06:55:32.220Z,99040.19
2023-04-17T06:58:00.163Z,99049.97
2023-04-17T07:00:28.307Z,99047.72
2023-04-17T07:02:56.695Z,99049.00
2023-04-17T07:05:25.151Z,99053.88
2023-04-17T07:07:53.110Z,99050.13
2023-04-17T07:10:21.447Z,99048.87
2023-04-17T07:12:49.572Z,99052.31
2023-04-17T07:15:18.038Z,99051.44
2023-04-17T07:17:46.561Z,99046.91
2023-04-17T07:20:14.672Z,99048.41
2023-04-17T07:22:43.384Z,99053.12
2023-04-17T07:25:11.730Z,99044.78
2023-04-17T07:27:39.739Z,99050.72
2023-04-17T07:30:08.498Z,99049.75
2023-04-17T07:32:36.853Z,99042.00
2023-04-17T07:35:05.198Z,99044.88
2023-04-17T07:37:34.871Z,99045.63
2023-04-17T07:40:05.022Z,99045.09
2023-04-17T07:42:33.089Z,99047.13
2023-04-17T07:45:00.950Z,99056.03
2023-04-17T07:47:31.209Z,99061.13
2023-04-17T07:49:59.255Z,99044.16
2023-04-17T07:52:27.265Z,99060.84
2023-04-17T07:54:56.649Z,99059.62
2023-04-17T07:57:26.678Z,99060.62
2023-04-17T07:59:54.777Z,99064.16
2023-04-17T08:02:23.424Z,99072.41
2023-04-17T08:04:52.513Z,99067.97
2023-04-17T08:07:20.902Z,99068.38
2023-04-17T08:09:51.187Z,99064.66
2023-04-17T08:12:19.584Z,99065.19
2023-04-17T08:14:47.691Z,99060.72
2023-04-17T08:17:20.357Z,99063.81
2023-04-17T08:19:54.310Z,99068.78
2023-04-17T08:22:24.374Z,99066.91
2023-04-17T08:24:58.107Z,99070.53
2023-04-17T08:27:26.198Z,99057.53
2023-04-17T08:29:54.539Z,99062.31
2023-04-17T08:32:22.496Z,99067.41
2023-04-17T08:34:50.467Z,99060.75
2023-04-17T08:37:18.810Z,99058.34
2023-04-17T08:39:46.864Z,99067.81
2023-04-17T08:42:18.850Z,99063.97
2023-04-17T08:44:47.512Z,99069.59
2023-04-17T08:47:18.374Z,99066.59
2023-04-17T08:49:47.520Z,99063.28
2023-04-17T08:52:16.912Z,99048.19
2023-04-17T08:54:44.909Z,99056.78
2023-04-17T08:57:12.987Z,99062.13
2023-04-17T08:59:43.957Z,99058.84
2023-04-17T09:02:12.183Z,99061.81
2023-04-17T09:04:45.014Z,99060.09
2023-04-17T09:07:15.680Z,99054.97
2023-04-17T09:09:54.928Z,99053.91
2023-04-17T09:12:25.760Z,99056.22
2023-04-17T09:14:53.821Z,99064.44
2023-04-17T09:17:22.040Z,99057.16
2023-04-17T09:20:12.362Z,99060.50
2023-04-17T09:22:41.341Z,99058.78
2023-04-17T09:25:23.425Z,99056.22
2023-04-17T09:27:51.373Z,99052.19
2023-04-17T09:30:19.819Z,99051.50
2023-04-17T09:32:47.828Z,99054.41
2023-04-17T09:35:25.970Z,99058.03
2023-04-17T09:37:55.658Z,99055.25
2023-04-17T09:40:25.498Z,99054.53
2023-04-17T09:43:00.762Z,99059.06
2023-04-17T09:45:35.895Z,99054.28
2023-04-17T09:48:09.037Z,99050.13
2023-04-17T09:50:38.832Z,99049.44
2023-04-17T09:53:07.920Z,99045.72
2023-04-17T09:55:38.357Z,99050.28
2023-04-17T09:58:08.173Z,99036.44
2023-04-17T10:00:38.162Z,99033.41
2023-04-17T10:03:07.751Z,99038.72
2023-04-17T10:05:36.126Z,99041.16
2023-04-17T10:08:04.671Z,99042.72
2023-04-17T10:10:34.335Z,99039.75
2023-04-17T10:13:07.936Z,99026.91
2023-04-17T10:15:38.192Z,99028.13
2023-04-17T10:18:24.054Z,99024.87
2023-04-17T10:20:54.109Z,99020.25
2023-04-17T10:23:33.327Z,99021.88
2023-04-17T10:26:25.135Z,99022.31
2023-04-17T10:28:54.646Z,99019.78
2023-04-17T10:31:25.824Z,99010.66
2023-04-17T10:33:54.636Z,99017.19
2023-04-17T10:36:40.980Z,99016.81
2023-04-17T10:39:17.013Z,99017.19
2023-04-17T10:42:03.584Z,99009.56
2023-04-17T10:44:41.161Z,99011.97
2023-04-17T10:47:18.536Z,99015.69
2023-04-17T10:50:00.425Z,99014.28
2023-04-17T10:52:35.279Z,99011.19
2023-04-17T10:55:17.936Z,99011.25
2023-04-17T10:58:05.172Z,99007.91
2023-04-17T11:00:38.709Z,99010.81
2023-04-17T11:03:07.586Z,99008.63
2023-04-17T11:05:36.258Z,99005.03
2023-04-17T11:08:04.210Z,99014.75
2023-04-17T11:10:36.054Z,99004.47
2023-04-17T11:13:04.381Z,99009.69
2023-04-17T11:15:34.649Z,99001.38
2023-04-17T11:18:03.937Z,99002.00
2023-04-17T11:20:33.576Z,99004.75
2023-04-17T11:23:06.301Z,98997.31
2023-04-17T11:25:35.169Z,99011.78
2023-04-17T11:28:07.174Z,99011.41
2023-04-17T11:30:37.966Z,99009.59
2023-04-17T11:33:08.039Z,98998.50
2023-04-17T11:35:39.027Z,99001.75
2023-04-17T11:38:21.714Z,99005.59
2023-04-17T11:40:52.683Z,99001.00
2023-04-17T11:43:22.145Z,99000.84
2023-04-17T11:45:53.607Z,98995.34
2023-04-17T11:48:23.450Z,98996.09
2023-04-17T11:50:58.233Z,98999.19
2023-04-17T11:53:26.290Z,98995.94
2023-04-17T11:56:15.925Z,99005.19
2023-04-17T11:58:52.677Z,98993.97
2023-04-17T12:01:25.803Z,98995.78
2023-04-17T12:03:55.650Z,98999.62
2023-04-17T12:06:24.724Z,98999.03
2023-04-17T12:08:55.800Z,99003.88
2023-04-17T12:11:34.569Z,99003.37
2023-04-17T12:14:03.900Z,99002.19
2023-04-17T12:16:32.345Z,99009.41
2023-04-17T12:19:00.465Z,98998.25
2023-04-17T12:21:28.489Z,99008.53
2023-04-17T12:23:56.718Z,98999.88
2023-04-17T12:26:25.894Z,99000.63
2023-04-17T12:28:53.863Z,98996.75
2023-04-17T12:31:22.202Z,98995.78
2023-04-17T12:33:50.336Z,98996.59
2023-04-17T12:36:18.763Z,98994.44
2023-04-17T12:38:47.599Z,98994.41
2023-04-17T12:41:15.531Z,98986.38
2023-04-17T12:43:43.436Z,98992.91
2023-04-17T12:46:12.105Z,98983.34
2023-04-17T12:48:40.057Z,98991.00
2023-04-17T12:51:08.011Z,98975.50
2023-04-17T12:53:36.472Z,98977.28
2023-04-17T12:56:04.730Z,98972.50
2023-04-17T12:58:33.192Z,98968.47
2023-04-17T13:01:01.551Z,98965.94
2023-04-17T13:03:29.860Z,98966.13
2023-04-17T13:05:58.135Z,98958.25
2023-04-17T13:08:26.420Z,98964.34
2023-04-17T13:10:54.341Z,98960.84
2023-04-17T13:13:22.302Z,98957.19
2023-04-17T13:15:50.593Z,98951.56
2023-04-17T13:18:18.482Z,98958.09
2023-04-17T13:20:46.498Z,98956.87
2023-04-17T13:23:14.784Z,98947.03
2023-04-17T13:25:42.701Z,98941.44
2023-04-17T13:28:11.243Z,98941.28
2023-04-17T13:30:40.141Z,98941.19
2023-04-17T13:33:08.296Z,98939.91
2023-04-17T13:35:36.270Z,98938.06
2023-04-17T13:38:05.038Z,98939.00
2023-04-17T13:40:32.995Z,98946.66
2023-04-17T13:43:00.966Z,98940.19
2023-04-17T13:45:29.278Z,98932.22
2023-04-17T13:47:57.447Z,98928.91
2023-04-17T13:50:25.486Z,98929.00
2023-04-17T13:52:53.749Z,98939.16
2023-04-17T13:55:21.798Z,98936.59
2023-04-17T13:57:51.254Z,98939.66
2023-04-17T14:00:21.093Z,98940.28
2023-04-17T14:02:49.755Z,98950.91
2023-04-17T14:05:17.910Z,98952.47
2023-04-17T14:07:45.869Z,98947.88
2023-04-17T14:10:14.131Z,98965.50
2023-04-17T14:12:42.145Z,98966.59
2023-04-17T14:15:10.701Z,98962.50
2023-04-17T14:17:43.392Z,98952.25
2023-04-17T14:20:12.275Z,98961.56
2023-04-17T14:22:42.617Z,98958.25
2023-04-17T14:25:10.844Z,98950.44
2023-04-17T14:27:38.920Z,98953.47
2023-04-17T14:30:08.420Z,98950.44
2023-04-17T14:32:38.627Z,98946.59
2023-04-17T14:35:07.369Z,98946.53
2023-04-17T14:37:35.887Z,98946.19
2023-04-17T14:40:04.979Z,98936.44
2023-04-17T14:42:40.812Z,98944.06
2023-04-17T14:45:19.318Z,98940.75
2023-04-17T14:47:47.284Z,98943.06
2023-04-17T14:50:15.205Z,98944.78
2023-04-17T14:52:43.428Z,98951.16
2023-04-17T14:55:12.433Z,98946.03
2023-04-17T14:57:40.478Z,98946.12
2023-04-17T15:00:09.311Z,98948.09
2023-04-17T15:02:39.354Z,98948.94
2023-04-17T15:05:08.377Z,98946.34
2023-04-17T15:07:36.887Z,98943.94
2023-04-17T15:10:05.168Z,98948.03
2023-04-17T15:12:33.119Z,98950.66
2023-04-17T15:15:01.360Z,98947.59
2023-04-17T15:17:29.329Z,98951.31
2023-04-17T15:19:57.805Z,98950.25
2023-04-17T15:22:27.123Z,98946.25
2023-04-17T15:24:55.193Z,98945.47
2023-04-17T15:27:23.487Z,98949.87
2023-04-17T15:29:51.844Z,98947.84
2023-04-17T15:32:19.959Z,98947.25
2023-04-17T15:34:48.637Z,98947.31
2023-04-17T15:37:16.976Z,98949.94
2023-04-17T15:39:44.999Z,98951.47
2023-04-17T15:42:12.996Z,98948.47
2023-04-17T15:44:41.351Z,98944.78
2023-04-17T15:47:10.241Z,98948.75
2023-04-17T15:49:38.196Z,98951.72
2023-04-17T15:52:07.262Z,98948.19
2023-04-17T15:54:35.463Z,98951.38
2023-04-17T15:57:03.456Z,98948.75
2023-04-17T15:59:33.361Z,98946.59
2023-04-17T16:02:01.511Z,98946.66
2023-04-17T16:04:29.914Z,98950.34
2023-04-17T16:06:57.980Z,98945.31
2023-04-17T16:09:25.928Z,98948.16
2023-04-17T16:11:54.253Z,98942.81
2023-04-17T16:14:22.248Z,98950.53
2023-04-17T16:16:50.251Z,98952.09
2023-04-17T16:19:18.543Z,98947.84
2023-04-17T16:21:46.432Z,98945.72
2023-04-17T16:24:14.325Z,98948.81
2023-04-17T16:26:43.063Z,98945.81
2023-04-17T16:29:11.255Z,98941.13
2023-04-17T16:31:39.350Z,98945.97
2023-04-17T16:34:09.800Z,98950.44
2023-04-17T16:36:37.673Z,98947.84
2023-04-17T16:39:05.911Z,98948.00
2023-04-17T16:41:37.424Z,98946.84
2023-04-17T16:44:05.826Z,98952.69
2023-04-17T16:46:45.723Z,98954.97
2023-04-17T16:49:22.233Z,98947.22
2023-04-17T16:51:50.619Z,98950.78
2023-04-17T16:54:20.720Z,98944.94
2023-04-17T16:56:49.634Z,98948.72
2023-04-17T16:59:17.502Z,98950.66
2023-04-17T17:01:47.288Z,98947.34
2023-04-17T17:04:16.106Z,98942.41
2023-04-17T17:06:44.047Z,98954.94
2023-04-17T17:09:12.231Z,98951.50
2023-04-17T17:11:40.907Z,98952.72
2023-04-17T17:14:09.004Z,98951.50
2023-04-17T17:16:37.160Z,98956.37
2023-04-17T17:19:06.156Z,98962.47
2023-04-17T17:21:34.059Z,98959.47
2023-04-17T17:24:02.024Z,98959.25
2023-04-17T17:26:30.473Z,98971.34
2023-04-17T17:28:58.582Z,98968.31
2023-04-17T17:31:26.522Z,98965.94
2023-04-17T17:33:56.056Z,98966.13
2023-04-17T17:36:24.017Z,98967.69
2023-04-17T17:38:56.049Z,98965.16
2023-04-17T17:41:24.675Z,98963.38
2023-04-17T17:43:52.866Z,98968.78
2023-04-17T17:46:21.402Z,98966.34
2023-04-17T17:48:49.893Z,98961.59
2023-04-17T17:51:17.792Z,98960.06
2023-04-17T17:53:45.810Z,98960.72
2023-04-17T17:56:14.258Z,98977.88
2023-04-17T17:58:42.186Z,98970.66
2023-04-17T18:01:10.126Z,98974.84
2023-04-17T18:03:38.530Z,98982.75
2023-04-17T18:06:06.604Z,98978.97
2023-04-17T18:08:35.028Z,98983.03
2023-04-17T18:11:03.328Z,98983.34
2023-04-17T18:13:31.428Z,98978.09
2023-04-17T18:15:59.385Z,98980.91
2023-04-17T18:18:27.750Z,98983.50
2023-04-17T18:20:55.689Z,98988.47
2023-04-17T18:23:23.692Z,98986.53
2023-04-17T18:26:02.387Z,98987.34
2023-04-17T18:28:30.565Z,98987.06
2023-04-17T18:30:59.014Z,98987.44
2023-04-17T18:33:27.122Z,98998.22
2023-04-17T18:35:55.024Z,98995.37
2023-04-17T18:38:23.275Z,98997.47
2023-04-17T18:40:57.448Z,98999.44
2023-04-17T18:43:26.202Z,99006.22
2023-04-17T18:45:54.648Z,99003.03
2023-04-17T18:48:24.021Z,98998.38
2023-04-17T18:50:52.484Z,99002.78
2023-04-17T18:53:20.348Z,99005.84
2023-04-17T18:55:48.312Z,99004.31
2023-04-17T18:58:16.664Z,99005.53
2023-04-17T19:00:44.664Z,99004.69
2023-04-17T19:03:12.745Z,99011.97
2023-04-17T19:05:41.129Z,99008.69
2023-04-17T19:08:09.826Z,99006.53
2023-04-17T19:10:39.919Z,99007.66
2023-04-17T19:13:10.049Z,99011.41
2023-04-17T19:15:38.141Z,99011.56
2023-04-17T19:18:06.911Z,99009.56
2023-04-17T19:20:36.688Z,99010.53
2023-04-17T19:23:04.815Z,99015.94
2023-04-17T19:25:32.725Z,99019.88
2023-04-17T19:28:00.955Z,99014.69
2023-04-17T19:30:28.920Z,99021.59
2023-04-17T19:32:57.057Z,99016.59
2023-04-17T19:35:26.375Z,99017.16
2023-04-17T19:37:54.324Z,99019.28
2023-04-17T19:40:25.595Z,99025.72
2023-04-17T19:42:56.410Z,99019.06
2023-04-17T19:45:24.288Z,99017.47
2023-04-17T19:47:56.388Z,99013.56
2023-04-17T19:50:27.371Z,99012.59
2023-04-17T19:52:56.970Z,99014.03
2023-04-17T19:55:25.268Z,99004.06
2023-04-17T19:57:53.265Z,99009.59
2023-04-17T20:00:21.280Z,98999.62
2023-04-17T20:02:49.621Z,98998.38
2023-04-17T20:05:18.679Z,98997.97
2023-04-17T20:07:46.742Z,99004.81
2023-04-17T20:10:17.173Z,98996.06
2023-04-17T20:12:45.104Z,99002.66
2023-04-17T20:15:13.024Z,98993.22
2023-04-17T20:17:41.358Z,98993.31
2023-04-17T20:20:09.910Z,98993.91
2023-04-17T20:22:39.821Z,99001.06
2023-04-17T20:25:08.549Z,99005.50
2023-04-17T20:27:36.601Z,99002.25
2023-04-17T20:30:04.999Z,99002.03
2023-04-17T20:32:33.378Z,99005.25
2023-04-17T20:35:02.529Z,99010.75
2023-04-17T20:37:30.644Z,99010.44
2023-04-17T20:39:58.967Z,99011.53
2023-04-17T20:42:26.912Z,99016.00
2023-04-17T20:44:55.478Z,99013.72
2023-04-17T20:47:23.830Z,99019.84
2023-04-17T20:49:51.762Z,99023.31
2023-04-17T20:52:19.713Z,99021.12
2023-04-17T20:54:48.161Z,99019.75
2023-04-17T20:57:16.067Z,99029.50
2023-04-17T20:59:44.041Z,99026.56
2023-04-17T21:02:12.468Z,99030.88
2023-04-17T21:04:40.848Z,99025.16
2023-04-17T21:07:08.732Z,99029.28
2023-04-17T21:09:36.993Z,99032.47
2023-04-17T21:12:06.538Z,99025.78
2023-04-17T21:14:36.188Z,99032.63
2023-04-17T21:17:04.532Z,99024.00
2023-04-17T21:19:36.135Z,99030.12
2023-04-17T21:22:04.505Z,99027.69
2023-04-17T21:24:32.501Z,99029.06
2023-04-17T21:27:00.463Z,99036.22
2023-04-17T21:29:29.078Z,99026.59
2023-04-17T21:31:57.147Z,99030.50
2023-04-17T21:34:25.665Z,99032.84
2023-04-17T21:36:54.735Z,99030.69
2023-04-17T21:39:22.708Z,99029.25
2023-04-17T21:41:50.698Z,99026.59
2023-04-17T21:44:18.937Z,99019.75
2023-04-17T21:46:46.894Z,99029.00
2023-04-17T21:49:14.895Z,99027.34
2023-04-17T21:51:43.266Z,99022.12
2023-04-17T21:54:11.299Z,99024.94
2023-04-17T21:56:39.420Z,99028.34
2023-04-17T21:59:07.687Z,99028.84
2023-04-17T22:01:35.779Z,99025.37
2023-04-17T22:04:04.385Z,99019.00
2023-04-17T22:06:36.522Z,99028.16
2023-04-17T22:09:09.016Z,99029.47
2023-04-17T22:11:38.556Z,99029.69
2023-04-17T22:14:06.792Z,99025.78
2023-04-17T22:16:34.675Z,99021.03
2023-04-17T22:19:02.905Z,99028.34
2023-04-17T22:21:31.148Z,99026.16
2023-04-17T22:23:59.553Z,99029.91
2023-04-17T22:26:27.936Z,99025.78
2023-04-17T22:28:56.101Z,99032.28
2023-04-17T22:31:24.090Z,99032.84
2023-04-17T22:33:51.928Z,99035.09
2023-04-17T22:36:20.144Z,99041.78
2023-04-17T22:38:48.016Z,99036.59
2023-04-17T22:41:15.909Z,99029.12
2023-04-17T22:43:44.054Z,99041.94
2023-04-17T22:46:11.912Z,99035.69
2023-04-17T22:48:40.873Z,99043.75
2023-04-17T22:51:09.940Z,99043.06
2023-04-17T22:53:37.762Z,99035.38
2023-04-17T22:56:06.562Z,99041.00
2023-04-17T22:58:35.137Z,99042.13
2023-04-17T23:01:03.345Z,99045.12
2023-04-17T23:03:31.304Z,99043.47
2023-04-17T23:05:59.435Z,99051.53
2023-04-17T23:08:30.082Z,99044.53
2023-04-17T23:10:59.997Z,99048.59
2023-04-17T23:13:28.715Z,99050.53
2023-04-17T23:15:56.697Z,99051.66
2023-04-17T23:18:24.804Z,99050.00
2023-04-17T23:20:53.080Z,99054.09
2023-04-17T23:23:21.287Z,99054.00
2023-04-17T23:25:49.190Z,99046.50
2023-04-17T23:28:17.457Z,99048.56
2023-04-17T23:30:45.301Z,99046.50
2023-04-17T23:33:13.258Z,99047.09
2023-04-17T23:35:41.561Z,99036.38
2023-04-17T23:38:09.473Z,99042.66
2023-04-17T23:40:37.603Z,99032.59
2023-04-17T23:43:06.815Z,99042.97
2023-04-17T23:45:34.709Z,99034.84
2023-04-17T23:48:02.652Z,99032.16
2023-04-17T23:50:31.008Z,99030.72
2023-04-17T23:52:58.979Z,99028.94
2023-04-17T23:55:27.308Z,99033.84
2023-04-17T23:57:56.817Z,99031.56
